DW8618 Nerja ES current weather conditions

sailwx.info

Wind from 013 at 7 knots gusting 19

Air temperature 11.1° C
Dewpoint 1.6° C

Last reported at 2020-Jan-20 04:31 UTC.
Time now 2020-Jan-20 09:12 UTC

Location: N 36°46' W 003°52'.
View on Google Maps.

See reports from other nearby stations

  
Tides and Currents Weather Stations Pressure Air Temp Water Temp Dewpoint Dewpoint Depression Visibility Wind Speed Wind Dir Waves Ship Positions
date/time (UTC)wind fromknots sea level pressurealtimeterstation pressurevisibilityair tempwater tempwave heightnotes
2020-Jan-20 04:31 013 7 gusting 19 11.1
2020-Jan-20 04:15 011 8 gusting 14 11.1
2020-Jan-20 03:45 005 10 gusting 20 11.1
2020-Jan-20 03:31 019 9 gusting 20 11.1
2020-Jan-20 03:15 360 7 gusting 17 11.1
2020-Jan-20 02:45 360 12 gusting 25 11.1
2020-Jan-20 02:31 005 12 gusting 16 11.1
2020-Jan-20 02:15 355 8 gusting 15 11.1
2020-Jan-20 01:45 355 11 gusting 15 11.7
2020-Jan-20 01:31 038 6 gusting 14 11.7
2020-Jan-20 01:15 005 7 gusting 14 11.7
2020-Jan-20 00:45 360 7 gusting 12 11.7
2020-Jan-20 00:31 338 5 gusting 10 11.7
2020-Jan-20 00:16 350 3 gusting 7 11.7
2020-Jan-19 23:45 331 6 gusting 11 11.1
2020-Jan-19 23:31 034 1 gusting 3 11.1
2020-Jan-19 23:15 271 0 gusting 3 11.1
2020-Jan-19 22:45 114 0 gusting 3 11.7
2020-Jan-19 22:31 123 1 gusting 6 11.1
2020-Jan-19 22:15 148 1 gusting 8 12.2
2020-Jan-19 21:45 169 5 gusting 9 12.2
2020-Jan-19 21:31 057 6 gusting 22 12.2
2020-Jan-19 21:15 015 5 gusting 18 12.2
2020-Jan-19 20:45 360 8 gusting 19 12.8
2020-Jan-19 20:31 009 7 gusting 20 12.8
2020-Jan-19 20:15 355 12 gusting 20 12.8
2020-Jan-19 19:45 040 11 gusting 21 12.8
2020-Jan-19 19:31 333 11 gusting 23 12.8
2020-Jan-19 19:15 019 13 gusting 21 13.3
2020-Jan-19 18:45 016 6 gusting 14 13.3
2020-Jan-19 18:31 095 2 gusting 11 13.3
2020-Jan-19 18:15 355 3 gusting 13 13.3
2020-Jan-19 17:45 342 7 gusting 19 13.3
2020-Jan-19 17:31 020 7 gusting 19 13.3
2020-Jan-19 17:16 015 2 gusting 7 13.9
2020-Jan-19 17:01 073 6 gusting 25 13.9
2020-Jan-19 16:45 052 9 gusting 22 13.9
2020-Jan-19 16:31 296 9 gusting 21 13.9
2020-Jan-19 16:15 005 13 gusting 26 13.9
2020-Jan-19 15:45 042 10 gusting 22 13.9
2020-Jan-19 15:31 355 6 gusting 13 13.9
2020-Jan-19 15:15 023 8 gusting 17 13.9
2020-Jan-19 15:01 350 10 gusting 19 13.3
2020-Jan-19 14:46 344 5 gusting 11 13.9
2020-Jan-19 14:30 344 7 gusting 13 14.4
2020-Jan-19 14:15 355 3 gusting 10 15.0
2020-Jan-19 14:01 011 4 gusting 8 15.6
2020-Jan-19 13:45 261 2 gusting 8 15.6
2020-Jan-19 13:31 343 3 gusting 9 15.6
2020-Jan-19 13:16 338 6 gusting 13 15.6
2020-Jan-19 13:01 320 5 gusting 16 15.0
2020-Jan-19 12:46 288 3 gusting 6 15.0
2020-Jan-19 12:31 333 7 gusting 13 15.0
2020-Jan-19 12:16 343 4 gusting 10 15.0
2020-Jan-19 12:01 286 6 gusting 15 15.6
2020-Jan-19 11:46 338 7 gusting 12 16.1
2020-Jan-19 11:30 330 6 gusting 13 16.7
2020-Jan-19 11:15 329 9 gusting 22 16.1
2020-Jan-19 11:01 360 11 gusting 20 16.1
2020-Jan-19 10:45 323 4 gusting 9 16.7
2020-Jan-19 10:31 274 1 gusting 17 15.6
2020-Jan-19 10:15 055 3 gusting 13 15.6
2020-Jan-19 09:45 212 15.0
2020-Jan-19 09:31 315 7 gusting 15 15.0
2020-Jan-19 09:15 294 5 gusting 9 14.4
2020-Jan-19 08:45 263 5 gusting 12 14.4
2020-Jan-19 08:31 261 7 gusting 18 13.3
2020-Jan-19 08:15 344 7 gusting 19 12.8
2020-Jan-19 07:45 360 9 gusting 15 12.8
2020-Jan-19 07:31 307 5 gusting 12 12.8
2020-Jan-19 07:15 293 6 gusting 16 13.3
2020-Jan-19 07:01 294 9 gusting 19 13.3
2020-Jan-19 06:45 314 7 gusting 16 13.3
2020-Jan-19 06:31 319 4 gusting 7 13.3
2020-Jan-19 06:15 321 6 gusting 14 13.3
2020-Jan-19 05:45 340 6 gusting 16 13.9
2020-Jan-19 05:31 349 7 gusting 19 14.4
2020-Jan-19 05:16 293 8 gusting 19 14.4
2020-Jan-19 05:01 355 6 gusting 17 14.4
2020-Jan-19 04:46 317 7 gusting 13 14.4
2020-Jan-19 04:30 315 9 gusting 17 14.4
2020-Jan-19 04:15 311 4 gusting 7 14.4
2020-Jan-19 04:01 296 15.0
2020-Jan-19 03:46 346 4 gusting 7 15.0
2020-Jan-19 03:31 288 4 gusting 14 15.0
2020-Jan-19 03:16 316 0 gusting 8 14.4
2020-Jan-19 03:01 269 5 gusting 9 15.0
2020-Jan-19 02:46 280 4 gusting 12 15.6
2020-Jan-19 02:30 276 6 gusting 13 15.6
2020-Jan-19 02:16 346 8 gusting 18 14.4
2020-Jan-19 02:01 284 6 gusting 13 13.3
2020-Jan-19 01:46 290 5 gusting 8 13.3
2020-Jan-19 01:31 290 4 gusting 8 13.3
2020-Jan-19 01:16 331 6 gusting 7 13.9
2020-Jan-19 01:01 333 2 gusting 5 13.9
2020-Jan-19 00:46 340 2 gusting 5 13.9
2020-Jan-19 00:31 317 1 gusting 4 13.9
2020-Jan-19 00:16 310 0 gusting 4 13.9
2020-Jan-18 23:45 289 2 gusting 6 14.4
2020-Jan-18 23:31 281 3 gusting 9 13.9
2020-Jan-18 23:16 331 3 gusting 4 13.9
2020-Jan-18 23:01 321 2 gusting 5 13.9
2020-Jan-18 22:46 342 1 gusting 3 13.9
2020-Jan-18 22:31 327 2 gusting 4 13.9
2020-Jan-18 22:16 314 2 gusting 5 14.4
2020-Jan-18 22:01 290 2 gusting 7 14.4
2020-Jan-18 21:46 302 4 gusting 6 14.4
2020-Jan-18 21:31 292 14.4
2020-Jan-18 21:16 311 14.4
2020-Jan-18 20:45 290 15.0
2020-Jan-18 20:31 314 1 gusting 6 14.4
2020-Jan-18 20:15 293 14.4
2020-Jan-18 19:46 294 13.9
2020-Jan-18 19:30 312 13.9
2020-Jan-18 19:16 312 13.9
2020-Jan-18 19:01 312 13.9
2020-Jan-18 18:46 314 13.9
2020-Jan-18 18:31 316 14.4
2020-Jan-18 18:16 286 14.4
2020-Jan-18 17:46 301 14.4
2020-Jan-18 17:31 227 14.4
2020-Jan-18 17:15 224 14.4
2020-Jan-18 17:01 222 14.4
2020-Jan-18 16:46 222 15.0
2020-Jan-18 16:31 221 15.0
2020-Jan-18 16:15 222 15.0
2020-Jan-18 16:01 181 15.0
2020-Jan-18 15:46 181 14.4
2020-Jan-18 15:31 175 15.0
2020-Jan-18 15:15 175 15.0
2020-Jan-18 14:45 175 14.4
2020-Jan-18 14:31 175 14.4
2020-Jan-18 14:15 175 14.4
2020-Jan-18 14:01 166 15.0
2020-Jan-18 13:45 112 15.0
2020-Jan-18 13:31 105 14.4
2020-Jan-18 13:15 111 13.9
2020-Jan-18 12:45 205 13.9
2020-Jan-18 12:31 207 14.4
2020-Jan-18 12:15 215 14.4
2020-Jan-18 11:45 322 15.0
2020-Jan-18 11:31 005 15.0
2020-Jan-18 11:15 005 15.0
2020-Jan-18 10:45 336 15.6
2020-Jan-18 10:31 336 15.6
2020-Jan-18 10:15 336 15.6
2020-Jan-18 09:45 336 15.6
2020-Jan-18 09:31 336 15.0
2020-Jan-18 09:15 336 13.9